Swartz Creek, Michigan
Current Conditions -  °F | °C
As of 10:53 PM on Monday 20 Oct 2014 (Local Time) from KFNT Reporting Station
Overcast Overcast  
Wind Chill: 50°   Ceiling: 2200
Heat Index: 50°   Visibility: 10mi
Dew Point: 44°   Wind: 7mph
Humidity: 80%   Direction: 310°NW
Pressure: 29.9"   Gusts: NA
Location:  42.96°N, 83.83°W
Report Text: KFNT 210253Z 31006KT 10SM OVC022 10/07 A2990 RMK AO2 SLP128 60002 T01000067 53014
Loading
Personal Weather Stations






























Interactive Weather Map
Tropical Storm Tracking
New forecast layout! Learn more

10-Day Weather Forecast

Advertisements
Track Severe Weather on mobile